Time;durP1;ratioP1;P1;durP2;ratioP2;P2;SDS_P1;SDS_P2;PMS_P1;PMS_P2;Temp;Humidity;BMP_temperature;BMP_pressure;BME280_temperature;BME280_humidity;BME280_pressure;Samples;Min_cycle;Max_cycle;Signal;HPM_P1;HPM_P2
2023/01/05 00:01:45;;;;;;;28.35;4.38;;;10.40;99.90;;;;;;5033537;28;20034;-85
2023/01/05 00:04:12;;;;;;;38.55;6.05;;;10.40;99.90;;;;;;5012192;28;20044;-82
2023/01/05 00:06:41;;;;;;;34.83;4.63;;;10.30;99.90;;;;;;5014352;28;20056;-83
2023/01/05 00:09:11;;;;;;;39.08;5.47;;;10.30;99.90;;;;;;5001172;28;20488;-83
2023/01/05 00:23:00;;;;;;;36.65;4.60;;;10.10;99.90;;;;;;5016524;28;20063;-79
2023/01/05 00:25:33;;;;;;;24.15;3.63;;;10.00;99.90;;;;;;5029593;28;20400;-85
2023/01/05 00:27:59;;;;;;;25.45;3.45;;;10.00;99.90;;;;;;5014208;28;20040;-82
2023/01/05 00:30:29;;;;;;;36.03;4.97;;;9.90;99.90;;;;;;5033374;28;20028;-81
2023/01/05 00:32:55;;;;;;;34.60;5.25;;;9.90;99.90;;;;;;5019597;28;20037;-82
2023/01/05 00:35:22;;;;;;;28.60;4.60;;;9.90;99.90;;;;;;5024009;28;20036;-82
2023/01/05 00:37:49;;;;;;;26.77;4.22;;;9.90;99.90;;;;;;5037726;28;20033;-85
2023/01/05 00:40:18;;;;;;;33.47;5.43;;;9.80;99.90;;;;;;5012943;28;20030;-83
2023/01/05 00:42:46;;;;;;;34.50;5.60;;;9.80;99.90;;;;;;5023156;28;20034;-79
2023/01/05 00:45:15;;;;;;;42.58;6.07;;;9.80;99.90;;;;;;5023391;28;20036;-83
2023/01/05 00:47:41;;;;;;;21.85;2.90;;;9.80;99.90;;;;;;5030847;28;20036;-84
2023/01/05 00:50:11;;;;;;;32.03;4.50;;;9.70;99.90;;;;;;5030897;28;20033;-84
2023/01/05 00:52:38;;;;;;;23.65;3.28;;;9.70;99.90;;;;;;5022596;28;20040;-81
2023/01/05 00:55:04;;;;;;;26.45;3.60;;;9.70;99.90;;;;;;4986055;28;20042;-83
2023/01/05 00:57:31;;;;;;;24.75;4.10;;;9.70;99.90;;;;;;5028700;28;20041;-81
2023/01/05 00:59:58;;;;;;;35.70;5.15;;;9.60;99.90;;;;;;5012356;28;20132;-83
2023/01/05 01:02:24;;;;;;;29.77;4.25;;;9.60;99.90;;;;;;5036885;28;20519;-82
2023/01/05 01:04:50;;;;;;;23.20;3.63;;;9.60;99.90;;;;;;5030320;28;20032;-83
2023/01/05 01:07:16;;;;;;;35.95;5.85;;;9.60;99.90;;;;;;5009150;28;20603;-83
2023/01/05 01:09:43;;;;;;;27.08;3.88;;;9.60;99.90;;;;;;5011575;28;20050;-84
2023/01/05 01:12:09;;;;;;;28.67;4.57;;;9.50;99.90;;;;;;5023349;28;20041;-83
2023/01/05 01:14:37;;;;;;;29.02;4.25;;;9.50;99.90;;;;;;5009958;28;20041;-83
2023/01/05 01:17:03;;;;;;;22.23;3.35;;;9.50;99.90;;;;;;5011399;28;20057;-83
2023/01/05 01:19:30;;;;;;;26.20;3.65;;;9.50;99.90;;;;;;5025237;28;20064;-82
2023/01/05 01:21:56;;;;;;;27.40;3.28;;;9.50;99.90;;;;;;5031438;28;20048;-82
2023/01/05 01:24:26;;;;;;;29.35;4.13;;;9.50;99.90;;;;;;5032308;28;20404;-85
2023/01/05 01:26:54;;;;;;;32.92;5.68;;;9.50;99.90;;;;;;4997241;28;20036;-81
2023/01/05 01:29:22;;;;;;;38.33;5.32;;;9.60;99.90;;;;;;5034421;28;20029;-83
2023/01/05 01:31:50;;;;;;;25.80;3.80;;;9.60;99.90;;;;;;5029085;28;20045;-83
2023/01/05 01:34:16;;;;;;;28.00;4.85;;;9.60;99.90;;;;;;5003521;28;20664;-83
2023/01/05 01:36:43;;;;;;;23.98;4.28;;;9.60;99.90;;;;;;5012123;28;20051;-82
2023/01/05 01:39:11;;;;;;;20.77;3.78;;;9.70;99.90;;;;;;5003407;28;20037;-83
2023/01/05 01:41:40;;;;;;;31.30;4.47;;;9.70;99.90;;;;;;5016768;28;20056;-82
2023/01/05 01:44:45;;;;;;;23.70;4.47;;;9.70;99.90;;;;;;5012282;28;20038;-84
2023/01/05 01:47:27;;;;;;;30.02;4.78;;;9.70;99.90;;;;;;5023233;28;20041;-80
2023/01/05 01:49:56;;;;;;;34.78;4.55;;;9.70;99.90;;;;;;5042069;28;20507;-82
2023/01/05 01:52:24;;;;;;;21.75;4.40;;;9.70;99.90;;;;;;5036492;28;20044;-83
2023/01/05 01:54:51;;;;;;;22.05;3.33;;;9.80;99.90;;;;;;5011575;28;20041;-82
2023/01/05 01:57:18;;;;;;;26.00;4.07;;;9.80;99.90;;;;;;5018343;28;20444;-79
2023/01/05 01:59:44;;;;;;;20.73;3.28;;;9.80;99.90;;;;;;5029741;28;20033;-80
2023/01/05 02:02:12;;;;;;;36.05;4.93;;;9.90;99.90;;;;;;5029063;28;20543;-84
2023/01/05 02:04:40;;;;;;;35.90;4.90;;;9.90;99.90;;;;;;5020920;28;20037;-82
2023/01/05 02:07:08;;;;;;;24.48;4.05;;;10.00;99.90;;;;;;5020749;28;20037;-80
2023/01/05 02:09:35;;;;;;;37.55;3.97;;;10.00;99.90;;;;;;5029408;28;20041;-81
2023/01/05 02:12:05;;;;;;;26.42;3.35;;;10.00;99.90;;;;;;5013954;28;20436;-85
2023/01/05 02:14:43;;;;;;;40.17;4.78;;;10.10;99.90;;;;;;5024022;28;20057;-81
2023/01/05 02:17:25;;;;;;;31.27;4.95;;;10.00;99.90;;;;;;5024533;28;20065;-83
2023/01/05 02:20:29;;;;;;;29.50;5.05;;;10.10;99.90;;;;;;5018129;28;20037;-80
2023/01/05 02:23:00;;;;;;;32.42;4.28;;;10.10;99.90;;;;;;5018836;28;20049;-80
2023/01/05 02:25:42;;;;;;;32.80;4.95;;;10.10;99.90;;;;;;5017989;28;20572;-82
2023/01/05 02:28:48;;;;;;;37.95;5.63;;;10.20;99.90;;;;;;5013139;28;20052;-83
2023/01/05 02:31:20;;;;;;;31.50;4.40;;;10.20;99.90;;;;;;5043371;28;20025;-81
2023/01/05 02:33:54;;;;;;;37.22;4.78;;;10.20;99.90;;;;;;5011778;28;20064;-84
2023/01/05 02:36:38;;;;;;;29.35;4.22;;;10.20;99.90;;;;;;5021584;28;20040;-84
2023/01/05 02:39:07;;;;;;;22.63;3.67;;;10.20;99.90;;;;;;5031675;28;20029;-83
2023/01/05 02:41:48;;;;;;;30.83;3.97;;;10.20;99.90;;;;;;5033190;28;20049;-82
2023/01/05 02:44:17;;;;;;;30.83;4.60;;;10.20;99.90;;;;;;5017269;28;21439;-84
2023/01/05 02:46:45;;;;;;;40.60;4.90;;;10.20;99.90;;;;;;5012456;28;20041;-83
2023/01/05 02:49:15;;;;;;;35.72;4.10;;;10.20;99.90;;;;;;4995050;28;20611;-83
2023/01/05 02:51:50;;;;;;;33.08;5.50;;;10.20;99.90;;;;;;5039306;28;20041;-84
2023/01/05 02:54:44;;;;;;;24.95;3.97;;;10.20;99.90;;;;;;5006400;28;20444;-82
2023/01/05 02:57:45;;;;;;;28.83;3.72;;;10.20;99.90;;;;;;5014070;28;20037;-83
2023/01/05 03:00:09;;;;;;;25.58;4.00;;;10.20;99.90;;;;;;5011128;28;20120;-86
2023/01/05 03:02:40;;;;;;;33.08;5.13;;;10.20;99.90;;;;;;5010460;28;20694;-80
2023/01/05 03:05:15;;;;;;;33.00;4.32;;;10.20;99.90;;;;;;5019051;28;20744;-83
2023/01/05 03:07:45;;;;;;;27.48;4.68;;;10.20;99.90;;;;;;5011445;28;20033;-85
2023/01/05 03:15:51;;;;;;;30.88;4.72;;;10.30;99.90;;;;;;5030204;28;20048;-83
2023/01/05 03:18:20;;;;;;;23.10;4.05;;;10.30;99.90;;;;;;5027584;28;20053;-86
2023/01/05 03:20:53;;;;;;;32.72;4.35;;;10.30;99.90;;;;;;4994318;28;20070;-81
2023/01/05 03:38:26;;;;;;;25.23;4.82;;;10.30;99.90;;;;;;5041208;28;20431;-85
2023/01/05 03:40:56;;;;;;;28.98;4.47;;;10.30;99.90;;;;;;5010776;28;20504;-84
2023/01/05 03:43:24;;;;;;;27.77;4.63;;;10.30;99.90;;;;;;5008054;28;20043;-83
2023/01/05 03:45:54;;;;;;;27.40;4.47;;;10.40;99.90;;;;;;5007028;28;20037;-83
2023/01/05 03:48:27;;;;;;;32.53;4.90;;;10.40;99.90;;;;;;5011098;28;20030;-83
2023/01/05 03:50:53;;;;;;;29.95;3.83;;;10.40;99.90;;;;;;5041049;28;20041;-86
2023/01/05 03:53:22;;;;;;;37.65;6.15;;;10.40;99.90;;;;;;5024495;28;20040;-79
2023/01/05 03:55:49;;;;;;;26.65;3.85;;;10.40;99.90;;;;;;4999373;28;20041;-87
2023/01/05 03:58:16;;;;;;;32.72;6.03;;;10.40;99.90;;;;;;4996718;28;20163;-81
2023/01/05 04:00:47;;;;;;;28.48;5.10;;;10.40;99.90;;;;;;5016164;28;20693;-82
2023/01/05 04:03:16;;;;;;;26.13;3.85;;;10.40;99.90;;;;;;5008368;28;20056;-85
2023/01/05 04:05:43;;;;;;;32.63;4.28;;;10.40;99.90;;;;;;5015417;28;20043;-83
2023/01/05 04:08:10;;;;;;;26.35;4.00;;;10.40;99.90;;;;;;4999331;28;20392;-84
2023/01/05 04:10:36;;;;;;;32.53;3.58;;;10.30;99.90;;;;;;5023708;28;20051;-86
2023/01/05 04:13:04;;;;;;;27.77;3.65;;;10.30;99.90;;;;;;5020235;28;20057;-84
2023/01/05 04:15:30;;;;;;;26.85;4.55;;;10.30;99.90;;;;;;5009650;28;20056;-85
2023/01/05 04:17:58;;;;;;;27.60;3.92;;;10.30;99.90;;;;;;5000695;28;20049;-83
2023/01/05 04:20:25;;;;;;;28.45;5.18;;;10.30;99.90;;;;;;5001595;28;20416;-85
2023/01/05 04:22:52;;;;;;;28.17;5.45;;;10.30;99.90;;;;;;5012430;28;20048;-85
2023/01/05 04:25:20;;;;;;;26.88;3.90;;;10.30;99.90;;;;;;5039062;28;20037;-85
2023/01/05 04:27:47;;;;;;;30.08;4.45;;;10.30;99.90;;;;;;5001285;28;20041;-84
2023/01/05 04:30:15;;;;;;;35.47;4.78;;;10.30;99.90;;;;;;5031107;28;20044;-86
2023/01/05 04:32:42;;;;;;;25.00;4.28;;;10.30;99.90;;;;;;5017128;28;20415;-79
2023/01/05 04:35:13;;;;;;;21.73;3.53;;;10.30;99.90;;;;;;5001193;28;20041;-85
2023/01/05 04:37:41;;;;;;;27.55;3.83;;;10.30;99.90;;;;;;5014455;28;20045;-83
2023/01/05 04:40:08;;;;;;;21.73;3.00;;;10.30;99.90;;;;;;5004934;28;20033;-85
2023/01/05 04:42:43;;;;;;;32.33;4.20;;;10.30;99.90;;;;;;5030990;28;20033;-83
2023/01/05 04:45:10;;;;;;;26.90;4.13;;;10.30;99.90;;;;;;5015317;28;20045;-84
2023/01/05 04:47:37;;;;;;;25.42;4.18;;;10.30;99.90;;;;;;5038611;28;20024;-85
2023/01/05 04:50:04;;;;;;;31.23;3.97;;;10.30;99.90;;;;;;5020129;28;20048;-84
2023/01/05 04:52:31;;;;;;;24.90;4.22;;;10.30;99.90;;;;;;5038124;28;20191;-85
2023/01/05 04:54:58;;;;;;;24.40;4.65;;;10.30;99.90;;;;;;4998916;28;20053;-86
2023/01/05 04:57:26;;;;;;;27.42;3.58;;;10.30;99.90;;;;;;5022772;28;20040;-85
2023/01/05 04:59:52;;;;;;;36.90;5.88;;;10.30;99.90;;;;;;4995552;28;20037;-83
2023/01/05 05:02:19;;;;;;;25.55;4.28;;;10.30;99.90;;;;;;5024911;28;20384;-85
2023/01/05 05:04:46;;;;;;;28.23;3.83;;;10.30;99.90;;;;;;5015853;28;20048;-83
2023/01/05 05:07:13;;;;;;;20.90;2.75;;;10.30;99.90;;;;;;5034029;28;20038;-84
2023/01/05 05:09:39;;;;;;;27.17;3.50;;;10.30;99.90;;;;;;5028618;28;20037;-84
2023/01/05 05:12:06;;;;;;;24.90;4.30;;;10.30;99.90;;;;;;5030828;28;20040;-82
2023/01/05 05:14:33;;;;;;;22.13;3.65;;;10.30;99.90;;;;;;5010626;28;20420;-84
2023/01/05 05:16:59;;;;;;;29.17;4.03;;;10.30;99.90;;;;;;5012924;28;20048;-81
2023/01/05 05:19:26;;;;;;;26.08;4.25;;;10.30;99.90;;;;;;5028891;28;20064;-85
2023/01/05 05:21:53;;;;;;;25.55;4.35;;;10.30;99.90;;;;;;5009441;28;20037;-83
2023/01/05 05:24:20;;;;;;;19.98;3.72;;;10.40;99.90;;;;;;5036311;28;20025;-85
2023/01/05 05:26:47;;;;;;;36.17;5.03;;;10.30;99.90;;;;;;5034136;28;20583;-85
2023/01/05 05:29:13;;;;;;;32.97;4.05;;;10.40;99.90;;;;;;5034782;28;20040;-80
2023/01/05 05:31:39;;;;;;;28.50;3.70;;;10.30;99.90;;;;;;5008068;28;20053;-84
2023/01/05 05:34:06;;;;;;;32.47;3.90;;;10.30;99.90;;;;;;5022648;28;20124;-84
2023/01/05 05:36:32;;;;;;;28.80;4.43;;;10.40;99.90;;;;;;5032402;28;20524;-84
2023/01/05 05:38:58;;;;;;;20.38;3.20;;;10.40;99.90;;;;;;5033982;28;20400;-83
2023/01/05 05:41:25;;;;;;;26.90;3.58;;;10.40;99.90;;;;;;5013271;28;20045;-84
2023/01/05 05:43:51;;;;;;;24.42;4.05;;;10.40;99.90;;;;;;4992717;28;20033;-84
2023/01/05 05:46:17;;;;;;;23.10;2.75;;;10.40;99.90;;;;;;5028653;28;20492;-83
2023/01/05 05:48:44;;;;;;;22.52;3.05;;;10.40;99.90;;;;;;5044417;28;20037;-82
2023/01/05 05:51:10;;;;;;;25.52;4.50;;;10.40;99.90;;;;;;5036182;28;20037;-86
2023/01/05 05:53:36;;;;;;;23.02;3.92;;;10.40;99.90;;;;;;5010614;28;20045;-81
2023/01/05 05:56:03;;;;;;;22.20;3.10;;;10.40;99.90;;;;;;5029069;28;20838;-83
2023/01/05 05:58:29;;;;;;;17.65;2.55;;;10.40;99.90;;;;;;5008642;28;20392;-84
2023/01/05 06:00:58;;;;;;;28.80;3.42;;;10.50;99.90;;;;;;5015199;28;20041;-80
2023/01/05 06:03:25;;;;;;;29.05;4.18;;;10.40;99.90;;;;;;5012220;28;21169;-83
2023/01/05 06:05:52;;;;;;;25.98;4.57;;;10.40;99.90;;;;;;5033885;28;21237;-84
2023/01/05 06:08:18;;;;;;;19.70;3.50;;;10.40;99.90;;;;;;5027564;28;20033;-80
2023/01/05 06:10:44;;;;;;;31.60;4.55;;;10.40;99.90;;;;;;5009783;28;20037;-84
2023/01/05 06:13:10;;;;;;;27.42;3.97;;;10.40;99.90;;;;;;5015577;28;20048;-82
2023/01/05 06:15:37;;;;;;;26.83;3.92;;;10.50;99.90;;;;;;5012162;28;20068;-82
2023/01/05 06:18:03;;;;;;;26.42;3.67;;;10.50;99.90;;;;;;5020096;28;20052;-82
2023/01/05 06:20:29;;;;;;;30.55;4.55;;;10.50;99.90;;;;;;5012473;28;20048;-82
2023/01/05 06:22:57;;;;;;;19.67;3.10;;;10.50;99.90;;;;;;5032361;28;20053;-84
2023/01/05 06:25:23;;;;;;;18.33;3.20;;;10.50;99.90;;;;;;5012730;28;20506;-84
2023/01/05 06:27:49;;;;;;;25.20;3.58;;;10.50;99.90;;;;;;5027918;28;20488;-80
2023/01/05 06:30:16;;;;;;;29.15;4.95;;;10.50;99.90;;;;;;5033948;28;20036;-79
2023/01/05 06:32:42;;;;;;;27.25;4.68;;;10.50;99.90;;;;;;5015719;28;20479;-81
2023/01/05 06:35:09;;;;;;;32.17;4.80;;;10.50;99.90;;;;;;5023577;28;20029;-88
2023/01/05 06:37:35;;;;;;;26.70;2.92;;;10.60;99.90;;;;;;5003663;28;20585;-84
2023/01/05 06:40:02;;;;;;;25.75;4.07;;;10.50;99.90;;;;;;5030074;28;20041;-87
2023/01/05 06:42:28;;;;;;;28.75;4.47;;;10.50;99.90;;;;;;5001425;28;20021;-86
2023/01/05 06:44:54;;;;;;;35.22;5.40;;;10.60;99.90;;;;;;5005365;28;20057;-84
2023/01/05 06:47:21;;;;;;;26.77;3.65;;;10.60;99.90;;;;;;5035802;28;20042;-86
2023/01/05 06:49:47;;;;;;;35.85;4.47;;;10.60;99.90;;;;;;5034853;28;20037;-84
2023/01/05 06:52:13;;;;;;;26.60;3.60;;;10.50;99.90;;;;;;5015712;28;20052;-82
2023/01/05 06:54:40;;;;;;;25.02;3.22;;;10.50;99.90;;;;;;4991210;28;20514;-82
2023/01/05 06:57:06;;;;;;;33.28;4.30;;;10.50;99.90;;;;;;5016832;28;20503;-79
2023/01/05 06:59:33;;;;;;;27.17;3.90;;;10.50;99.90;;;;;;5028827;28;20045;-82
2023/01/05 07:01:59;;;;;;;22.15;3.92;;;10.60;99.90;;;;;;5029915;28;20546;-81
2023/01/05 07:04:25;;;;;;;22.75;3.33;;;10.50;99.90;;;;;;4987352;28;20044;-78
2023/01/05 07:06:52;;;;;;;26.70;4.13;;;10.60;99.90;;;;;;5028710;28;20048;-80
2023/01/05 07:09:18;;;;;;;23.85;4.10;;;10.50;99.90;;;;;;5040725;28;20040;-82
2023/01/05 07:11:44;;;;;;;24.02;4.03;;;10.50;99.90;;;;;;5019403;28;20040;-84
2023/01/05 07:14:10;;;;;;;28.25;3.95;;;10.50;99.90;;;;;;5025482;28;20037;-87
2023/01/05 07:16:37;;;;;;;34.78;4.35;;;10.50;99.90;;;;;;5011207;28;20041;-87
2023/01/05 07:19:03;;;;;;;20.52;3.67;;;10.40;99.90;;;;;;5036913;28;20038;-83
2023/01/05 07:21:29;;;;;;;16.25;3.47;;;10.30;99.90;;;;;;5022232;28;20029;-83
2023/01/05 07:23:56;;;;;;;28.73;4.38;;;10.30;99.90;;;;;;5023565;28;20028;-90
2023/01/05 07:26:22;;;;;;;21.88;3.40;;;10.30;99.90;;;;;;5031023;28;20044;-83
2023/01/05 07:28:48;;;;;;;38.47;5.15;;;10.20;99.90;;;;;;5019175;28;20044;-85
2023/01/05 07:31:14;;;;;;;28.27;3.47;;;10.20;99.90;;;;;;5034689;28;21509;-84
2023/01/05 07:33:41;;;;;;;24.42;3.33;;;10.20;99.90;;;;;;5007291;28;20032;-86
2023/01/05 07:36:07;;;;;;;22.98;3.80;;;10.20;99.90;;;;;;5030295;28;20045;-81
2023/01/05 07:38:33;;;;;;;22.15;4.03;;;10.20;99.90;;;;;;5015519;28;20052;-86
2023/01/05 07:41:01;;;;;;;22.58;2.70;;;10.20;99.90;;;;;;5023541;28;20029;-84
2023/01/05 07:43:28;;;;;;;25.88;4.07;;;10.20;99.90;;;;;;5009307;28;20476;-79
2023/01/05 07:45:58;;;;;;;23.63;4.20;;;10.20;99.90;;;;;;5037241;28;20088;-83
2023/01/05 07:48:25;;;;;;;28.42;4.63;;;10.20;99.90;;;;;;5014232;28;20598;-83
2023/01/05 07:50:52;;;;;;;38.80;4.60;;;10.20;99.90;;;;;;5001006;28;20045;-84
2023/01/05 07:53:18;;;;;;;27.95;3.80;;;10.20;99.90;;;;;;4990301;28;20037;-86
2023/01/05 07:55:54;;;;;;;34.53;5.28;;;10.20;99.90;;;;;;5031426;28;20038;-84
2023/01/05 07:58:20;;;;;;;36.65;4.13;;;10.20;99.90;;;;;;5014389;28;20052;-84
2023/01/05 08:00:46;;;;;;;34.28;4.38;;;10.20;99.90;;;;;;5043575;28;20395;-82
2023/01/05 08:03:14;;;;;;;21.35;3.67;;;10.20;99.90;;;;;;5027792;28;20515;-82
2023/01/05 08:05:40;;;;;;;26.17;3.20;;;10.20;99.90;;;;;;5032676;28;20048;-80
2023/01/05 08:08:06;;;;;;;24.90;3.97;;;10.30;99.90;;;;;;5040861;28;20037;-81
2023/01/05 08:10:33;;;;;;;31.65;5.07;;;10.30;99.90;;;;;;5019601;28;20040;-88
2023/01/05 08:15:50;;;;;;;29.75;3.45;;;10.30;99.90;;;;;;5025758;28;20708;-84
2023/01/05 08:18:17;;;;;;;37.50;4.38;;;10.30;99.90;;;;;;5036733;28;20059;-83
2023/01/05 08:20:49;;;;;;;27.30;3.88;;;10.30;99.90;;;;;;5016481;28;20040;-84
2023/01/05 08:23:16;;;;;;;31.67;4.22;;;10.30;99.90;;;;;;5015286;28;20344;-80
2023/01/05 08:25:42;;;;;;;36.65;4.80;;;10.30;99.90;;;;;;5028062;28;20048;-84
2023/01/05 08:28:08;;;;;;;30.42;4.07;;;10.30;99.90;;;;;;5020262;28;20432;-84
2023/01/05 08:30:34;;;;;;;31.70;3.67;;;10.40;99.90;;;;;;5031373;28;20032;-83
2023/01/05 08:33:01;;;;;;;21.70;3.38;;;10.40;99.90;;;;;;5034089;28;20045;-83
2023/01/05 08:35:27;;;;;;;23.15;3.20;;;10.40;99.90;;;;;;5016840;28;20050;-84
2023/01/05 08:37:53;;;;;;;24.45;4.07;;;10.40;99.90;;;;;;5028764;28;20048;-81
2023/01/05 08:40:19;;;;;;;19.90;3.38;;;10.40;99.90;;;;;;5014896;28;20029;-82
2023/01/05 08:42:47;;;;;;;34.63;5.28;;;10.50;99.90;;;;;;5032341;28;20044;-79
2023/01/05 08:45:14;;;;;;;27.45;4.32;;;10.50;99.90;;;;;;5013613;28;20654;-84
2023/01/05 08:47:41;;;;;;;36.80;4.55;;;10.50;99.90;;;;;;5021558;28;20530;-85
2023/01/05 08:50:10;;;;;;;25.67;4.65;;;10.50;99.90;;;;;;4998044;28;20551;-83
2023/01/05 08:52:37;;;;;;;32.05;4.70;;;10.60;99.90;;;;;;5028227;28;20041;-77
2023/01/05 08:55:06;;;;;;;24.55;3.67;;;10.60;99.90;;;;;;5030037;28;20033;-84
2023/01/05 08:57:33;;;;;;;23.17;3.85;;;10.60;99.90;;;;;;5030809;28;20406;-82
2023/01/05 08:59:59;;;;;;;32.17;5.68;;;10.60;99.90;;;;;;5033802;28;20036;-83
2023/01/05 09:02:26;;;;;;;23.67;3.10;;;10.60;99.90;;;;;;5044700;28;20038;-82
2023/01/05 09:04:52;;;;;;;30.63;4.35;;;10.60;99.90;;;;;;5023845;28;20037;-83
2023/01/05 09:07:19;;;;;;;29.80;3.60;;;10.60;99.90;;;;;;5008743;28;20048;-79
2023/01/05 09:09:45;;;;;;;19.98;3.22;;;10.60;99.90;;;;;;5035025;28;20404;-79
2023/01/05 09:12:11;;;;;;;20.58;3.58;;;10.60;99.90;;;;;;5035741;28;20048;-82
2023/01/05 09:14:38;;;;;;;38.45;5.25;;;10.60;99.90;;;;;;5008258;28;20492;-83
2023/01/05 09:17:04;;;;;;;33.60;4.95;;;10.60;99.90;;;;;;5028832;28;20053;-82
2023/01/05 09:19:30;;;;;;;23.58;3.72;;;10.60;99.90;;;;;;5036556;28;20033;-81
2023/01/05 09:21:56;;;;;;;23.90;3.78;;;10.60;99.90;;;;;;5031604;28;20037;-83
2023/01/05 09:24:23;;;;;;;27.30;4.50;;;10.60;99.90;;;;;;5021141;28;20029;-85
2023/01/05 09:26:49;;;;;;;33.13;5.47;;;10.60;99.90;;;;;;5035098;28;20041;-82
2023/01/05 09:29:15;;;;;;;25.83;4.05;;;10.60;99.90;;;;;;5011760;28;20029;-84
2023/01/05 09:31:42;;;;;;;21.83;3.28;;;10.60;99.90;;;;;;5033342;28;20060;-83
2023/01/05 09:34:09;;;;;;;27.90;3.92;;;10.60;99.90;;;;;;5023253;28;20051;-85
2023/01/05 09:36:37;;;;;;;29.10;4.47;;;10.60;99.90;;;;;;5025755;28;20519;-82
2023/01/05 09:39:05;;;;;;;27.20;4.07;;;10.70;99.90;;;;;;5044890;28;20040;-84
2023/01/05 09:41:48;;;;;;;27.60;3.53;;;10.70;99.90;;;;;;5002750;28;20041;-82
2023/01/05 09:44:31;;;;;;;24.30;3.55;;;10.70;99.90;;;;;;5019385;28;20540;-81
2023/01/05 09:47:17;;;;;;;36.33;4.88;;;10.70;99.90;;;;;;5029717;28;20045;-82
2023/01/05 09:49:46;;;;;;;29.48;5.57;;;10.70;99.90;;;;;;5031112;28;20036;-83
2023/01/05 09:52:13;;;;;;;25.73;4.72;;;10.70;99.90;;;;;;5028082;28;20026;-82
2023/01/05 09:54:40;;;;;;;25.40;3.75;;;10.70;99.90;;;;;;5022633;28;20033;-83
2023/01/05 09:57:15;;;;;;;25.35;3.47;;;10.70;99.90;;;;;;5034144;28;20048;-83
2023/01/05 09:59:45;;;;;;;28.02;3.97;;;10.70;99.90;;;;;;5028922;28;20044;-79
2023/01/05 10:02:41;;;;;;;23.52;3.67;;;10.70;99.90;;;;;;5028552;28;20413;-83
2023/01/05 10:05:12;;;;;;;30.67;4.30;;;10.80;99.90;;;;;;5031276;28;20056;-83
2023/01/05 10:07:46;;;;;;;24.08;4.57;;;10.80;99.90;;;;;;5029816;28;20046;-83
2023/01/05 10:10:24;;;;;;;22.48;3.13;;;10.80;99.90;;;;;;5026657;28;20037;-78
2023/01/05 10:13:03;;;;;;;31.30;4.20;;;10.80;99.90;;;;;;5026162;28;20052;-81
2023/01/05 10:15:35;;;;;;;24.48;3.33;;;10.80;99.90;;;;;;5026283;28;20591;-83
2023/01/05 10:18:10;;;;;;;32.22;5.13;;;10.90;99.90;;;;;;5026805;28;20057;-84
2023/01/05 10:20:42;;;;;;;22.02;2.92;;;10.90;99.90;;;;;;5010258;28;20037;-84
2023/01/05 10:23:30;;;;;;;23.00;2.92;;;11.00;99.90;;;;;;5004175;28;20037;-80
2023/01/05 10:26:11;;;;;;;25.95;4.72;;;11.00;99.90;;;;;;5008971;28;20049;-83
2023/01/05 10:28:51;;;;;;;25.98;4.47;;;11.00;99.90;;;;;;5030186;28;20499;-80
2023/01/05 10:31:23;;;;;;;23.00;3.35;;;11.00;99.90;;;;;;5010592;28;20060;-82
2023/01/05 10:33:52;;;;;;;24.05;3.47;;;11.00;99.90;;;;;;5020970;28;20033;-82
2023/01/05 10:36:44;;;;;;;29.25;3.58;;;11.00;99.90;;;;;;5009663;28;20049;-84
2023/01/05 10:39:17;;;;;;;26.17;4.03;;;11.10;99.90;;;;;;5030822;28;20501;-85
2023/01/05 10:41:57;;;;;;;21.85;3.97;;;11.10;99.90;;;;;;5017102;28;20033;-83
2023/01/05 10:44:39;;;;;;;27.77;4.10;;;11.10;99.90;;;;;;5024212;28;20044;-82
2023/01/05 10:47:11;;;;;;;28.52;3.90;;;11.10;99.90;;;;;;5020373;28;20048;-83
2023/01/05 10:49:39;;;;;;;;;;;11.10;99.90;;;;;;5013811;28;20240;-80
2023/01/05 10:52:13;;;;;;;21.17;3.55;;;11.10;99.90;;;;;;4993384;28;19916;-83
2023/01/05 10:54:54;;;;;;;24.08;3.03;;;11.10;99.90;;;;;;5021681;28;20408;-82
2023/01/05 10:57:39;;;;;;;23.52;3.58;;;11.10;99.90;;;;;;5017456;28;20037;-82
2023/01/05 11:00:20;;;;;;;22.45;4.35;;;11.10;99.90;;;;;;5020378;28;20477;-78
2023/01/05 11:02:51;;;;;;;19.25;2.90;;;11.10;99.90;;;;;;5019715;28;20719;-79
2023/01/05 11:05:29;;;;;;;24.33;3.78;;;11.20;99.90;;;;;;5024873;28;20037;-81
2023/01/05 11:07:58;;;;;;;26.75;3.40;;;11.20;99.90;;;;;;5034695;28;20060;-82
2023/01/05 11:10:35;;;;;;;23.55;3.45;;;11.20;99.90;;;;;;5030637;28;20045;-80
2023/01/05 11:13:26;;;;;;;24.48;3.75;;;11.30;99.90;;;;;;5010465;28;20498;-81
2023/01/05 11:15:55;;;;;;;24.75;4.22;;;11.30;99.90;;;;;;5033759;28;20408;-83
2023/01/05 11:18:29;;;;;;;23.95;3.08;;;11.30;99.90;;;;;;5030128;28;20069;-81
2023/01/05 11:21:05;;;;;;;18.27;3.03;;;11.30;99.90;;;;;;5024141;28;20060;-83
2023/01/05 11:23:44;;;;;;;19.90;3.13;;;11.40;99.90;;;;;;5025236;28;20049;-83
2023/01/05 11:26:19;;;;;;;27.30;4.60;;;11.40;99.90;;;;;;5020846;28;20045;-82
2023/01/05 11:29:03;;;;;;;21.67;2.85;;;11.50;99.90;;;;;;5032473;28;20026;-86
2023/01/05 11:31:42;;;;;;;27.35;4.20;;;11.50;99.90;;;;;;5032150;28;20511;-84
2023/01/05 11:34:44;;;;;;;23.90;3.28;;;11.60;99.90;;;;;;4994422;28;20045;-84
2023/01/05 11:37:10;;;;;;;28.75;4.55;;;11.60;99.90;;;;;;5013461;28;20053;-82
2023/01/05 11:40:00;;;;;;;28.88;3.75;;;11.60;99.90;;;;;;5031246;28;20472;-81
2023/01/05 11:42:26;;;;;;;24.13;3.67;;;11.60;99.90;;;;;;5036600;28;20055;-83
2023/01/05 11:45:00;;;;;;;26.17;3.28;;;11.60;99.90;;;;;;5004610;28;20373;-82
2023/01/05 11:47:35;;;;;;;20.42;3.60;;;11.70;99.90;;;;;;5036773;28;20502;-81
2023/01/05 11:50:17;;;;;;;19.48;3.30;;;11.80;99.90;;;;;;5029308;28;20051;-80
2023/01/05 11:52:49;;;;;;;25.35;3.05;;;11.90;99.90;;;;;;5017329;28;20044;-79
2023/01/05 11:55:47;;;;;;;30.17;4.82;;;11.90;99.90;;;;;;5032635;28;20041;-83
2023/01/05 11:58:24;;;;;;;21.75;3.30;;;11.90;99.90;;;;;;5032246;28;20045;-81
2023/01/05 12:01:27;;;;;;;26.95;4.38;;;11.90;99.90;;;;;;5014509;28;20091;-83
2023/01/05 12:04:12;;;;;;;24.05;3.70;;;11.90;99.90;;;;;;5013038;28;20041;-82
2023/01/05 12:07:03;;;;;;;28.40;5.30;;;11.90;99.90;;;;;;5019809;28;20132;-82
2023/01/05 12:09:32;;;;;;;27.55;4.57;;;12.00;99.90;;;;;;5025824;28;20029;-82
2023/01/05 12:12:36;;;;;;;27.02;4.22;;;12.00;99.90;;;;;;5012710;28;20044;-81
2023/01/05 12:15:39;;;;;;;26.88;4.47;;;12.00;99.90;;;;;;5004612;28;20033;-81
2023/01/05 12:18:49;;;;;;;23.27;4.20;;;12.00;99.90;;;;;;5044868;28;20049;-80
2023/01/05 12:21:23;;;;;;;19.33;3.05;;;12.00;99.90;;;;;;5027917;28;20044;-81
2023/01/05 12:24:25;;;;;;;25.10;5.57;;;12.00;99.90;;;;;;5001935;28;20968;-80
2023/01/05 12:27:06;;;;;;;40.33;6.15;;;12.00;99.90;;;;;;5028540;28;20033;-83
2023/01/05 12:30:01;;;;;;;28.33;4.57;;;12.00;99.90;;;;;;5029785;28;20483;-80
2023/01/05 12:33:03;;;;;;;32.60;4.88;;;12.00;99.90;;;;;;5011486;28;20041;-80
2023/01/05 12:35:32;;;;;;;20.23;3.55;;;12.10;99.90;;;;;;5022819;28;20045;-80
2023/01/05 12:38:20;;;;;;;25.58;4.85;;;12.20;99.90;;;;;;5018902;28;20042;-79
2023/01/05 12:41:06;;;;;;;26.58;4.70;;;12.40;99.90;;;;;;5027719;28;20048;-82
2023/01/05 12:43:54;;;;;;;19.88;3.90;;;12.50;99.90;;;;;;5027045;28;20042;-81
2023/01/05 12:46:27;;;;;;;37.45;5.65;;;12.70;99.90;;;;;;5015920;28;20058;-81
2023/01/05 12:49:07;;;;;;;22.85;4.65;;;12.80;99.90;;;;;;5028131;28;20037;-81
2023/01/05 12:51:49;;;;;;;21.33;4.15;;;12.80;99.90;;;;;;5043426;28;20044;-81
2023/01/05 12:54:29;;;;;;;16.65;2.97;;;12.80;99.90;;;;;;5031555;28;20036;-81
2023/01/05 12:57:31;;;;;;;21.20;3.08;;;12.80;99.90;;;;;;5027910;28;20064;-81
2023/01/05 13:00:02;;;;;;;;;;;12.80;99.90;;;;;;5007027;28;20046;-80
2023/01/05 13:02:36;;;;;;;25.02;3.75;;;12.70;99.90;;;;;;5030798;28;19917;-81
2023/01/05 13:05:28;;;;;;;16.70;2.22;;;12.60;99.90;;;;;;5020447;28;20040;-80
2023/01/05 13:08:16;;;;;;;27.52;4.43;;;12.50;99.90;;;;;;5029291;28;20033;-81
2023/01/05 13:10:58;;;;;;;25.73;3.83;;;12.50;99.90;;;;;;5035256;28;20632;-81
2023/01/05 13:13:51;;;;;;;27.30;5.13;;;12.40;99.90;;;;;;5026381;28;20255;-77
2023/01/05 13:16:24;;;;;;;27.50;5.93;;;12.40;99.90;;;;;;5007804;28;20053;-81
2023/01/05 13:19:06;;;;;;;23.75;4.13;;;12.30;99.90;;;;;;5025889;28;20048;-77
2023/01/05 13:21:35;;;;;;;17.80;4.03;;;12.40;99.90;;;;;;5020348;28;20037;-80
2023/01/05 13:24:12;;;;;;;28.02;4.43;;;12.40;99.90;;;;;;5032370;28;20036;-79
2023/01/05 13:26:38;;;;;;;19.75;3.05;;;12.50;99.90;;;;;;5029064;28;20047;-79
2023/01/05 13:29:04;;;;;;;18.83;3.50;;;12.50;99.90;;;;;;5031763;28;20026;-81
2023/01/05 13:32:10;;;;;;;20.58;3.67;;;12.50;99.90;;;;;;5028237;28;20042;-77
2023/01/05 13:34:42;;;;;;;26.50;4.88;;;12.40;99.90;;;;;;5021502;28;20060;-81
2023/01/05 13:37:39;;;;;;;17.37;3.13;;;12.30;99.90;;;;;;5030905;28;20041;-81